sensor_id;sensor_type;location;lat;lon;timestamp;P1;durP1;ratioP1;P2;durP2;ratioP2
57023;SDS011;42916;54.346;18.562;2022-12-18T00:02:12;56.80;;;24.30;;
57023;SDS011;42916;54.346;18.562;2022-12-18T00:04:39;66.70;;;25.80;;
57023;SDS011;42916;54.346;18.562;2022-12-18T00:07:05;57.30;;;23.40;;
57023;SDS011;42916;54.346;18.562;2022-12-18T00:09:32;57.20;;;22.80;;
57023;SDS011;42916;54.346;18.562;2022-12-18T00:11:58;50.60;;;19.00;;
57023;SDS011;42916;54.346;18.562;2022-12-18T00:14:25;49.70;;;19.10;;
57023;SDS011;42916;54.346;18.562;2022-12-18T00:16:52;60.40;;;24.80;;
57023;SDS011;42916;54.346;18.562;2022-12-18T00:19:18;57.30;;;23.20;;
57023;SDS011;42916;54.346;18.562;2022-12-18T00:21:45;65.00;;;24.70;;
57023;SDS011;42916;54.346;18.562;2022-12-18T00:24:12;66.40;;;26.30;;
57023;SDS011;42916;54.346;18.562;2022-12-18T00:26:39;64.80;;;21.90;;
57023;SDS011;42916;54.346;18.562;2022-12-18T00:29:12;47.40;;;18.20;;
57023;SDS011;42916;54.346;18.562;2022-12-18T00:31:40;59.30;;;22.20;;
57023;SDS011;42916;54.346;18.562;2022-12-18T00:34:10;65.40;;;22.30;;
57023;SDS011;42916;54.346;18.562;2022-12-18T00:36:40;48.00;;;17.00;;
57023;SDS011;42916;54.346;18.562;2022-12-18T00:39:07;50.20;;;18.30;;
57023;SDS011;42916;54.346;18.562;2022-12-18T00:41:36;59.90;;;19.90;;
57023;SDS011;42916;54.346;18.562;2022-12-18T00:44:21;54.20;;;19.90;;
57023;SDS011;42916;54.346;18.562;2022-12-18T00:46:48;56.60;;;20.40;;
57023;SDS011;42916;54.346;18.562;2022-12-18T00:49:16;58.20;;;19.70;;
57023;SDS011;42916;54.346;18.562;2022-12-18T00:51:44;43.10;;;15.60;;
57023;SDS011;42916;54.346;18.562;2022-12-18T00:54:11;46.00;;;15.10;;
57023;SDS011;42916;54.346;18.562;2022-12-18T00:56:37;49.00;;;16.90;;
57023;SDS011;42916;54.346;18.562;2022-12-18T00:59:05;51.50;;;18.50;;
57023;SDS011;42916;54.346;18.562;2022-12-18T01:01:32;46.30;;;17.00;;
57023;SDS011;42916;54.346;18.562;2022-12-18T01:04:00;50.60;;;17.00;;
57023;SDS011;42916;54.346;18.562;2022-12-18T01:06:28;54.70;;;19.80;;
57023;SDS011;42916;54.346;18.562;2022-12-18T01:08:55;54.40;;;18.70;;
57023;SDS011;42916;54.346;18.562;2022-12-18T01:11:22;56.20;;;19.50;;
57023;SDS011;42916;54.346;18.562;2022-12-18T01:13:51;50.80;;;16.80;;
57023;SDS011;42916;54.346;18.562;2022-12-18T01:16:18;55.80;;;17.90;;
57023;SDS011;42916;54.346;18.562;2022-12-18T01:18:45;41.70;;;14.70;;
57023;SDS011;42916;54.346;18.562;2022-12-18T01:21:14;44.40;;;15.90;;
57023;SDS011;42916;54.346;18.562;2022-12-18T01:23:45;45.80;;;16.10;;
57023;SDS011;42916;54.346;18.562;2022-12-18T01:26:13;43.80;;;15.00;;
57023;SDS011;42916;54.346;18.562;2022-12-18T01:28:41;47.60;;;16.50;;
57023;SDS011;42916;54.346;18.562;2022-12-18T01:33:47;61.00;;;18.40;;
57023;SDS011;42916;54.346;18.562;2022-12-18T01:36:15;61.40;;;20.10;;
57023;SDS011;42916;54.346;18.562;2022-12-18T01:38:43;60.80;;;21.70;;
57023;SDS011;42916;54.346;18.562;2022-12-18T01:41:11;53.50;;;19.10;;
57023;SDS011;42916;54.346;18.562;2022-12-18T01:43:54;61.00;;;19.00;;
57023;SDS011;42916;54.346;18.562;2022-12-18T01:46:26;55.60;;;17.80;;
57023;SDS011;42916;54.346;18.562;2022-12-18T01:48:57;54.30;;;19.00;;
57023;SDS011;42916;54.346;18.562;2022-12-18T01:51:27;58.20;;;20.30;;
57023;SDS011;42916;54.346;18.562;2022-12-18T01:53:57;67.70;;;22.00;;
57023;SDS011;42916;54.346;18.562;2022-12-18T01:56:25;70.40;;;21.30;;
57023;SDS011;42916;54.346;18.562;2022-12-18T02:01:27;63.00;;;23.10;;
57023;SDS011;42916;54.346;18.562;2022-12-18T02:03:56;52.10;;;18.60;;
57023;SDS011;42916;54.346;18.562;2022-12-18T02:06:47;54.70;;;18.30;;
57023;SDS011;42916;54.346;18.562;2022-12-18T02:09:24;41.80;;;15.70;;
57023;SDS011;42916;54.346;18.562;2022-12-18T02:14:56;50.80;;;18.10;;
57023;SDS011;42916;54.346;18.562;2022-12-18T02:17:36;66.90;;;20.20;;
57023;SDS011;42916;54.346;18.562;2022-12-18T02:25:29;59.60;;;21.00;;
57023;SDS011;42916;54.346;18.562;2022-12-18T02:28:02;57.90;;;20.40;;
57023;SDS011;42916;54.346;18.562;2022-12-18T02:30:34;38.50;;;13.80;;
57023;SDS011;42916;54.346;18.562;2022-12-18T02:33:04;52.20;;;17.90;;
57023;SDS011;42916;54.346;18.562;2022-12-18T02:35:34;43.90;;;16.60;;
57023;SDS011;42916;54.346;18.562;2022-12-18T02:38:03;47.90;;;18.70;;
57023;SDS011;42916;54.346;18.562;2022-12-18T02:40:30;68.10;;;21.50;;
57023;SDS011;42916;54.346;18.562;2022-12-18T02:43:02;59.90;;;21.30;;
57023;SDS011;42916;54.346;18.562;2022-12-18T02:45:56;53.00;;;18.20;;
57023;SDS011;42916;54.346;18.562;2022-12-18T02:48:30;47.20;;;18.50;;
57023;SDS011;42916;54.346;18.562;2022-12-18T02:51:08;53.90;;;18.60;;
57023;SDS011;42916;54.346;18.562;2022-12-18T02:53:51;46.60;;;17.20;;
57023;SDS011;42916;54.346;18.562;2022-12-18T02:56:25;47.10;;;18.60;;
57023;SDS011;42916;54.346;18.562;2022-12-18T03:01:52;51.60;;;19.90;;
57023;SDS011;42916;54.346;18.562;2022-12-18T03:07:19;46.20;;;16.00;;
57023;SDS011;42916;54.346;18.562;2022-12-18T03:09:53;48.70;;;17.30;;
57023;SDS011;42916;54.346;18.562;2022-12-18T03:12:24;39.20;;;15.80;;
57023;SDS011;42916;54.346;18.562;2022-12-18T03:15:00;37.10;;;14.20;;
57023;SDS011;42916;54.346;18.562;2022-12-18T03:17:33;39.30;;;13.00;;
57023;SDS011;42916;54.346;18.562;2022-12-18T03:20:12;54.30;;;18.40;;
57023;SDS011;42916;54.346;18.562;2022-12-18T03:22:44;42.60;;;15.70;;
57023;SDS011;42916;54.346;18.562;2022-12-18T03:25:13;42.10;;;17.40;;
57023;SDS011;42916;54.346;18.562;2022-12-18T03:27:44;38.30;;;16.50;;
57023;SDS011;42916;54.346;18.562;2022-12-18T03:30:15;35.20;;;13.80;;
57023;SDS011;42916;54.346;18.562;2022-12-18T03:32:48;35.60;;;12.20;;
57023;SDS011;42916;54.346;18.562;2022-12-18T03:35:21;36.40;;;14.30;;
57023;SDS011;42916;54.346;18.562;2022-12-18T03:37:52;29.90;;;11.40;;
57023;SDS011;42916;54.346;18.562;2022-12-18T03:40:20;39.50;;;15.40;;
57023;SDS011;42916;54.346;18.562;2022-12-18T03:42:56;42.30;;;15.10;;
57023;SDS011;42916;54.346;18.562;2022-12-18T03:45:32;32.10;;;13.40;;
57023;SDS011;42916;54.346;18.562;2022-12-18T03:48:16;31.20;;;12.80;;
57023;SDS011;42916;54.346;18.562;2022-12-18T03:51:02;31.30;;;13.10;;
57023;SDS011;42916;54.346;18.562;2022-12-18T03:56:18;40.10;;;15.40;;
57023;SDS011;42916;54.346;18.562;2022-12-18T03:58:49;30.40;;;12.80;;
57023;SDS011;42916;54.346;18.562;2022-12-18T04:01:30;40.80;;;15.00;;
57023;SDS011;42916;54.346;18.562;2022-12-18T04:04:03;34.60;;;14.40;;
57023;SDS011;42916;54.346;18.562;2022-12-18T04:06:34;37.70;;;14.10;;
57023;SDS011;42916;54.346;18.562;2022-12-18T04:09:02;29.40;;;12.80;;
57023;SDS011;42916;54.346;18.562;2022-12-18T04:11:32;42.70;;;14.00;;
57023;SDS011;42916;54.346;18.562;2022-12-18T04:13:59;34.70;;;12.90;;
57023;SDS011;42916;54.346;18.562;2022-12-18T04:16:26;33.80;;;14.20;;
57023;SDS011;42916;54.346;18.562;2022-12-18T04:18:55;30.70;;;13.00;;
57023;SDS011;42916;54.346;18.562;2022-12-18T04:21:22;23.80;;;10.20;;
57023;SDS011;42916;54.346;18.562;2022-12-18T04:23:49;27.20;;;11.10;;
57023;SDS011;42916;54.346;18.562;2022-12-18T04:26:17;28.80;;;10.70;;
57023;SDS011;42916;54.346;18.562;2022-12-18T04:29:01;36.30;;;14.10;;
57023;SDS011;42916;54.346;18.562;2022-12-18T04:31:27;29.20;;;13.50;;
57023;SDS011;42916;54.346;18.562;2022-12-18T04:33:54;38.10;;;15.50;;
57023;SDS011;42916;54.346;18.562;2022-12-18T04:36:22;38.10;;;14.80;;
57023;SDS011;42916;54.346;18.562;2022-12-18T04:38:49;30.10;;;12.20;;
57023;SDS011;42916;54.346;18.562;2022-12-18T04:41:16;22.40;;;10.30;;
57023;SDS011;42916;54.346;18.562;2022-12-18T04:43:44;27.90;;;11.00;;
57023;SDS011;42916;54.346;18.562;2022-12-18T04:46:11;25.90;;;11.10;;
57023;SDS011;42916;54.346;18.562;2022-12-18T04:48:38;27.90;;;11.80;;
57023;SDS011;42916;54.346;18.562;2022-12-18T04:51:04;28.40;;;12.30;;
57023;SDS011;42916;54.346;18.562;2022-12-18T04:53:32;35.40;;;14.30;;
57023;SDS011;42916;54.346;18.562;2022-12-18T04:56:07;33.70;;;13.60;;
57023;SDS011;42916;54.346;18.562;2022-12-18T04:58:36;26.20;;;11.80;;
57023;SDS011;42916;54.346;18.562;2022-12-18T05:01:04;25.30;;;11.50;;
57023;SDS011;42916;54.346;18.562;2022-12-18T05:03:31;22.30;;;10.50;;
57023;SDS011;42916;54.346;18.562;2022-12-18T05:05:58;31.90;;;12.60;;
57023;SDS011;42916;54.346;18.562;2022-12-18T05:08:25;30.30;;;12.60;;
57023;SDS011;42916;54.346;18.562;2022-12-18T05:13:48;24.60;;;10.50;;
57023;SDS011;42916;54.346;18.562;2022-12-18T05:16:15;23.60;;;10.90;;
57023;SDS011;42916;54.346;18.562;2022-12-18T05:18:42;24.50;;;11.10;;
57023;SDS011;42916;54.346;18.562;2022-12-18T05:21:09;26.10;;;11.90;;
57023;SDS011;42916;54.346;18.562;2022-12-18T05:23:35;30.50;;;11.70;;
57023;SDS011;42916;54.346;18.562;2022-12-18T05:26:03;26.30;;;11.60;;
57023;SDS011;42916;54.346;18.562;2022-12-18T05:28:32;31.50;;;12.20;;
57023;SDS011;42916;54.346;18.562;2022-12-18T05:31:01;22.90;;;10.40;;
57023;SDS011;42916;54.346;18.562;2022-12-18T05:33:32;25.00;;;11.00;;
57023;SDS011;42916;54.346;18.562;2022-12-18T05:36:03;22.90;;;9.90;;
57023;SDS011;42916;54.346;18.562;2022-12-18T05:38:31;25.30;;;11.00;;
57023;SDS011;42916;54.346;18.562;2022-12-18T05:41:00;19.70;;;10.10;;
57023;SDS011;42916;54.346;18.562;2022-12-18T05:43:27;29.60;;;11.70;;
57023;SDS011;42916;54.346;18.562;2022-12-18T05:45:55;27.60;;;10.50;;
57023;SDS011;42916;54.346;18.562;2022-12-18T05:48:23;35.80;;;14.10;;
57023;SDS011;42916;54.346;18.562;2022-12-18T05:50:50;29.50;;;12.30;;
57023;SDS011;42916;54.346;18.562;2022-12-18T05:53:18;24.40;;;11.90;;
57023;SDS011;42916;54.346;18.562;2022-12-18T05:55:46;18.10;;;8.80;;
57023;SDS011;42916;54.346;18.562;2022-12-18T05:58:13;21.10;;;9.90;;
57023;SDS011;42916;54.346;18.562;2022-12-18T06:00:42;29.30;;;11.80;;
57023;SDS011;42916;54.346;18.562;2022-12-18T06:03:10;27.50;;;11.20;;
57023;SDS011;42916;54.346;18.562;2022-12-18T06:05:39;22.80;;;10.20;;
57023;SDS011;42916;54.346;18.562;2022-12-18T06:08:11;31.80;;;11.50;;
57023;SDS011;42916;54.346;18.562;2022-12-18T06:10:39;25.50;;;11.00;;
57023;SDS011;42916;54.346;18.562;2022-12-18T06:13:07;28.80;;;11.90;;
57023;SDS011;42916;54.346;18.562;2022-12-18T06:15:35;23.50;;;10.00;;
57023;SDS011;42916;54.346;18.562;2022-12-18T06:20:30;23.30;;;10.10;;
57023;SDS011;42916;54.346;18.562;2022-12-18T06:22:57;29.60;;;12.40;;
57023;SDS011;42916;54.346;18.562;2022-12-18T06:25:23;27.70;;;13.00;;
57023;SDS011;42916;54.346;18.562;2022-12-18T06:27:50;35.60;;;13.70;;
57023;SDS011;42916;54.346;18.562;2022-12-18T06:30:17;35.50;;;13.30;;
57023;SDS011;42916;54.346;18.562;2022-12-18T06:32:43;29.70;;;11.20;;
57023;SDS011;42916;54.346;18.562;2022-12-18T06:35:11;28.70;;;10.40;;
57023;SDS011;42916;54.346;18.562;2022-12-18T06:37:37;27.00;;;11.60;;
57023;SDS011;42916;54.346;18.562;2022-12-18T06:40:04;28.10;;;11.90;;
57023;SDS011;42916;54.346;18.562;2022-12-18T06:42:31;29.60;;;11.20;;
57023;SDS011;42916;54.346;18.562;2022-12-18T06:44:58;25.00;;;11.50;;
57023;SDS011;42916;54.346;18.562;2022-12-18T06:47:25;26.20;;;11.20;;
57023;SDS011;42916;54.346;18.562;2022-12-18T06:49:52;34.80;;;13.90;;
57023;SDS011;42916;54.346;18.562;2022-12-18T06:52:18;33.70;;;13.20;;
57023;SDS011;42916;54.346;18.562;2022-12-18T06:54:45;20.80;;;9.10;;
57023;SDS011;42916;54.346;18.562;2022-12-18T06:57:12;22.60;;;9.60;;
57023;SDS011;42916;54.346;18.562;2022-12-18T06:59:38;21.50;;;8.70;;
57023;SDS011;42916;54.346;18.562;2022-12-18T07:02:05;31.00;;;12.70;;
57023;SDS011;42916;54.346;18.562;2022-12-18T07:04:32;24.40;;;11.90;;
57023;SDS011;42916;54.346;18.562;2022-12-18T07:06:58;25.80;;;12.10;;
57023;SDS011;42916;54.346;18.562;2022-12-18T07:09:25;32.50;;;12.80;;
57023;SDS011;42916;54.346;18.562;2022-12-18T07:11:52;34.60;;;14.10;;
57023;SDS011;42916;54.346;18.562;2022-12-18T07:14:18;26.40;;;11.30;;
57023;SDS011;42916;54.346;18.562;2022-12-18T07:16:45;20.90;;;9.80;;
57023;SDS011;42916;54.346;18.562;2022-12-18T07:19:12;23.80;;;11.20;;
57023;SDS011;42916;54.346;18.562;2022-12-18T07:21:38;23.00;;;10.10;;
57023;SDS011;42916;54.346;18.562;2022-12-18T07:24:05;23.30;;;11.20;;
57023;SDS011;42916;54.346;18.562;2022-12-18T07:26:32;32.20;;;13.00;;
57023;SDS011;42916;54.346;18.562;2022-12-18T07:28:59;30.20;;;13.20;;
57023;SDS011;42916;54.346;18.562;2022-12-18T07:31:26;23.00;;;9.00;;
57023;SDS011;42916;54.346;18.562;2022-12-18T07:33:53;25.00;;;11.30;;
57023;SDS011;42916;54.346;18.562;2022-12-18T07:36:19;23.50;;;10.30;;
57023;SDS011;42916;54.346;18.562;2022-12-18T07:38:47;19.60;;;8.90;;
57023;SDS011;42916;54.346;18.562;2022-12-18T07:41:15;26.90;;;9.90;;
57023;SDS011;42916;54.346;18.562;2022-12-18T07:43:44;23.20;;;9.90;;
57023;SDS011;42916;54.346;18.562;2022-12-18T07:46:12;34.00;;;11.50;;
57023;SDS011;42916;54.346;18.562;2022-12-18T07:48:40;22.40;;;9.30;;
57023;SDS011;42916;54.346;18.562;2022-12-18T07:51:08;22.40;;;9.90;;
57023;SDS011;42916;54.346;18.562;2022-12-18T07:53:39;23.40;;;8.40;;
57023;SDS011;42916;54.346;18.562;2022-12-18T07:56:09;19.30;;;7.50;;
57023;SDS011;42916;54.346;18.562;2022-12-18T08:01:09;26.90;;;11.90;;
57023;SDS011;42916;54.346;18.562;2022-12-18T08:03:39;19.40;;;9.40;;
57023;SDS011;42916;54.346;18.562;2022-12-18T08:08:35;19.70;;;8.60;;
57023;SDS011;42916;54.346;18.562;2022-12-18T08:11:02;17.40;;;7.80;;
57023;SDS011;42916;54.346;18.562;2022-12-18T08:13:29;19.10;;;8.90;;
57023;SDS011;42916;54.346;18.562;2022-12-18T08:15:59;17.10;;;7.70;;
57023;SDS011;42916;54.346;18.562;2022-12-18T08:18:27;20.40;;;10.10;;
57023;SDS011;42916;54.346;18.562;2022-12-18T08:20:55;24.90;;;10.60;;
57023;SDS011;42916;54.346;18.562;2022-12-18T08:23:23;27.70;;;11.00;;
57023;SDS011;42916;54.346;18.562;2022-12-18T08:25:50;22.90;;;9.50;;
57023;SDS011;42916;54.346;18.562;2022-12-18T08:28:19;26.70;;;10.70;;
57023;SDS011;42916;54.346;18.562;2022-12-18T08:30:46;31.70;;;11.70;;
57023;SDS011;42916;54.346;18.562;2022-12-18T08:33:18;29.90;;;10.80;;
57023;SDS011;42916;54.346;18.562;2022-12-18T08:35:46;22.10;;;10.70;;
57023;SDS011;42916;54.346;18.562;2022-12-18T08:38:13;21.50;;;9.60;;
57023;SDS011;42916;54.346;18.562;2022-12-18T08:40:42;19.80;;;8.90;;
57023;SDS011;42916;54.346;18.562;2022-12-18T08:43:10;23.70;;;10.10;;
57023;SDS011;42916;54.346;18.562;2022-12-18T08:45:55;17.90;;;7.60;;
57023;SDS011;42916;54.346;18.562;2022-12-18T08:48:23;19.50;;;9.70;;
57023;SDS011;42916;54.346;18.562;2022-12-18T08:50:57;23.10;;;10.60;;
57023;SDS011;42916;54.346;18.562;2022-12-18T08:53:28;19.60;;;9.80;;
57023;SDS011;42916;54.346;18.562;2022-12-18T08:55:58;18.00;;;9.70;;
57023;SDS011;42916;54.346;18.562;2022-12-18T08:58:27;20.20;;;9.00;;
57023;SDS011;42916;54.346;18.562;2022-12-18T09:00:54;28.40;;;11.50;;
57023;SDS011;42916;54.346;18.562;2022-12-18T09:03:20;20.40;;;9.50;;
57023;SDS011;42916;54.346;18.562;2022-12-18T09:05:48;18.80;;;8.60;;
57023;SDS011;42916;54.346;18.562;2022-12-18T09:08:15;29.30;;;12.30;;
57023;SDS011;42916;54.346;18.562;2022-12-18T09:10:45;27.70;;;11.00;;
57023;SDS011;42916;54.346;18.562;2022-12-18T09:13:13;19.80;;;10.00;;
57023;SDS011;42916;54.346;18.562;2022-12-18T09:15:41;25.10;;;9.50;;
57023;SDS011;42916;54.346;18.562;2022-12-18T09:18:09;23.70;;;9.90;;
57023;SDS011;42916;54.346;18.562;2022-12-18T09:20:36;19.30;;;8.70;;
57023;SDS011;42916;54.346;18.562;2022-12-18T09:23:04;22.40;;;10.30;;
57023;SDS011;42916;54.346;18.562;2022-12-18T09:25:31;20.80;;;9.40;;
57023;SDS011;42916;54.346;18.562;2022-12-18T09:27:59;19.60;;;8.90;;
57023;SDS011;42916;54.346;18.562;2022-12-18T09:30:26;16.50;;;7.90;;
57023;SDS011;42916;54.346;18.562;2022-12-18T09:32:53;19.00;;;8.70;;
57023;SDS011;42916;54.346;18.562;2022-12-18T09:35:20;23.50;;;11.10;;
57023;SDS011;42916;54.346;18.562;2022-12-18T09:37:46;21.40;;;9.80;;
57023;SDS011;42916;54.346;18.562;2022-12-18T09:40:14;27.90;;;12.10;;
57023;SDS011;42916;54.346;18.562;2022-12-18T09:43:05;26.30;;;10.50;;
57023;SDS011;42916;54.346;18.562;2022-12-18T09:45:35;24.70;;;10.40;;
57023;SDS011;42916;54.346;18.562;2022-12-18T09:48:10;25.10;;;10.10;;
57023;SDS011;42916;54.346;18.562;2022-12-18T09:50:45;25.70;;;11.60;;
57023;SDS011;42916;54.346;18.562;2022-12-18T09:53:18;23.30;;;10.40;;
57023;SDS011;42916;54.346;18.562;2022-12-18T09:55:50;29.10;;;12.80;;
57023;SDS011;42916;54.346;18.562;2022-12-18T10:01:13;27.70;;;11.90;;
57023;SDS011;42916;54.346;18.562;2022-12-18T10:03:44;26.80;;;11.80;;
57023;SDS011;42916;54.346;18.562;2022-12-18T10:06:13;23.20;;;10.40;;
57023;SDS011;42916;54.346;18.562;2022-12-18T10:11:34;28.60;;;12.50;;
57023;SDS011;42916;54.346;18.562;2022-12-18T10:27:45;27.40;;;9.30;;
57023;SDS011;42916;54.346;18.562;2022-12-18T10:30:14;24.60;;;9.80;;
57023;SDS011;42916;54.346;18.562;2022-12-18T10:32:42;24.00;;;9.50;;
57023;SDS011;42916;54.346;18.562;2022-12-18T10:35:23;28.30;;;11.20;;
57023;SDS011;42916;54.346;18.562;2022-12-18T10:43:23;22.10;;;9.20;;
57023;SDS011;42916;54.346;18.562;2022-12-18T10:48:39;18.70;;;8.20;;
57023;SDS011;42916;54.346;18.562;2022-12-18T10:56:33;19.50;;;8.40;;
57023;SDS011;42916;54.346;18.562;2022-12-18T10:59:05;17.00;;;8.30;;
57023;SDS011;42916;54.346;18.562;2022-12-18T11:01:48;16.20;;;7.70;;
57023;SDS011;42916;54.346;18.562;2022-12-18T11:04:24;20.60;;;8.30;;
57023;SDS011;42916;54.346;18.562;2022-12-18T11:09:31;21.00;;;8.50;;
57023;SDS011;42916;54.346;18.562;2022-12-18T11:14:33;22.60;;;9.10;;
57023;SDS011;42916;54.346;18.562;2022-12-18T11:19:59;18.00;;;7.00;;
57023;SDS011;42916;54.346;18.562;2022-12-18T11:22:59;11.10;;;5.00;;
57023;SDS011;42916;54.346;18.562;2022-12-18T11:25:32;18.70;;;9.00;;
57023;SDS011;42916;54.346;18.562;2022-12-18T11:28:04;20.80;;;8.40;;
57023;SDS011;42916;54.346;18.562;2022-12-18T11:31:08;18.40;;;8.20;;
57023;SDS011;42916;54.346;18.562;2022-12-18T11:33:39;17.30;;;8.20;;
57023;SDS011;42916;54.346;18.562;2022-12-18T11:36:10;18.00;;;7.70;;
57023;SDS011;42916;54.346;18.562;2022-12-18T11:38:41;18.30;;;8.00;;
57023;SDS011;42916;54.346;18.562;2022-12-18T11:44:24;18.60;;;7.80;;
57023;SDS011;42916;54.346;18.562;2022-12-18T11:47:00;15.40;;;7.20;;
57023;SDS011;42916;54.346;18.562;2022-12-18T11:49:35;20.90;;;7.30;;
57023;SDS011;42916;54.346;18.562;2022-12-18T11:54:29;18.90;;;7.90;;
57023;SDS011;42916;54.346;18.562;2022-12-18T11:57:03;19.00;;;7.10;;
57023;SDS011;42916;54.346;18.562;2022-12-18T12:10:58;18.20;;;7.80;;
57023;SDS011;42916;54.346;18.562;2022-12-18T12:13:43;20.30;;;7.30;;
57023;SDS011;42916;54.346;18.562;2022-12-18T12:19:25;17.40;;;7.00;;
57023;SDS011;42916;54.346;18.562;2022-12-18T12:22:03;18.30;;;6.70;;
57023;SDS011;42916;54.346;18.562;2022-12-18T12:27:20;20.70;;;7.20;;
57023;SDS011;42916;54.346;18.562;2022-12-18T12:29:51;21.00;;;7.10;;
57023;SDS011;42916;54.346;18.562;2022-12-18T12:40:44;17.90;;;5.90;;
57023;SDS011;42916;54.346;18.562;2022-12-18T12:43:21;15.50;;;5.70;;
57023;SDS011;42916;54.346;18.562;2022-12-18T12:48:48;14.60;;;6.10;;
57023;SDS011;42916;54.346;18.562;2022-12-18T12:53:45;14.50;;;5.40;;
57023;SDS011;42916;54.346;18.562;2022-12-18T12:56:14;19.60;;;5.50;;
57023;SDS011;42916;54.346;18.562;2022-12-18T12:58:55;14.70;;;6.20;;
57023;SDS011;42916;54.346;18.562;2022-12-18T13:09:31;14.90;;;6.60;;
57023;SDS011;42916;54.346;18.562;2022-12-18T13:12:03;11.50;;;5.50;;
57023;SDS011;42916;54.346;18.562;2022-12-18T13:15:11;17.30;;;6.20;;
57023;SDS011;42916;54.346;18.562;2022-12-18T13:17:48;12.00;;;5.40;;
57023;SDS011;42916;54.346;18.562;2022-12-18T13:20:15;11.90;;;5.80;;
57023;SDS011;42916;54.346;18.562;2022-12-18T13:22:43;12.10;;;5.80;;
57023;SDS011;42916;54.346;18.562;2022-12-18T13:25:32;11.60;;;5.30;;
57023;SDS011;42916;54.346;18.562;2022-12-18T13:28:14;13.70;;;6.10;;
57023;SDS011;42916;54.346;18.562;2022-12-18T13:36:09;15.10;;;6.40;;
57023;SDS011;42916;54.346;18.562;2022-12-18T13:38:39;17.20;;;6.30;;
57023;SDS011;42916;54.346;18.562;2022-12-18T13:43:41;14.70;;;6.50;;
57023;SDS011;42916;54.346;18.562;2022-12-18T13:46:20;17.20;;;6.60;;
57023;SDS011;42916;54.346;18.562;2022-12-18T13:48:58;13.40;;;6.40;;
57023;SDS011;42916;54.346;18.562;2022-12-18T13:51:28;15.80;;;7.10;;
57023;SDS011;42916;54.346;18.562;2022-12-18T13:56:27;16.70;;;6.80;;
57023;SDS011;42916;54.346;18.562;2022-12-18T13:59:04;14.00;;;6.10;;
57023;SDS011;42916;54.346;18.562;2022-12-18T14:01:36;16.60;;;7.40;;
57023;SDS011;42916;54.346;18.562;2022-12-18T14:04:08;20.40;;;8.00;;
57023;SDS011;42916;54.346;18.562;2022-12-18T14:06:45;18.40;;;7.50;;
57023;SDS011;42916;54.346;18.562;2022-12-18T14:09:21;12.10;;;5.20;;
57023;SDS011;42916;54.346;18.562;2022-12-18T14:11:55;16.10;;;7.40;;
57023;SDS011;42916;54.346;18.562;2022-12-18T14:14:44;15.30;;;7.20;;
57023;SDS011;42916;54.346;18.562;2022-12-18T14:17:16;17.00;;;6.90;;
57023;SDS011;42916;54.346;18.562;2022-12-18T14:19:44;17.20;;;7.30;;
57023;SDS011;42916;54.346;18.562;2022-12-18T14:22:21;19.40;;;7.20;;
57023;SDS011;42916;54.346;18.562;2022-12-18T14:28:04;14.80;;;6.60;;
57023;SDS011;42916;54.346;18.562;2022-12-18T14:30:40;16.10;;;6.30;;
57023;SDS011;42916;54.346;18.562;2022-12-18T14:35:55;16.70;;;6.30;;
57023;SDS011;42916;54.346;18.562;2022-12-18T14:38:35;21.70;;;8.00;;
57023;SDS011;42916;54.346;18.562;2022-12-18T14:41:06;21.10;;;8.20;;
57023;SDS011;42916;54.346;18.562;2022-12-18T14:43:34;16.40;;;6.20;;
57023;SDS011;42916;54.346;18.562;2022-12-18T14:46:02;19.90;;;8.10;;
57023;SDS011;42916;54.346;18.562;2022-12-18T14:54:01;18.50;;;7.70;;
57023;SDS011;42916;54.346;18.562;2022-12-18T14:56:34;27.50;;;10.00;;
57023;SDS011;42916;54.346;18.562;2022-12-18T14:59:06;28.10;;;10.40;;
57023;SDS011;42916;54.346;18.562;2022-12-18T15:01:47;32.90;;;10.90;;
57023;SDS011;42916;54.346;18.562;2022-12-18T15:04:33;22.40;;;8.80;;
57023;SDS011;42916;54.346;18.562;2022-12-18T15:07:03;25.80;;;9.10;;
57023;SDS011;42916;54.346;18.562;2022-12-18T15:09:43;19.30;;;7.30;;
57023;SDS011;42916;54.346;18.562;2022-12-18T15:12:33;22.20;;;8.40;;
57023;SDS011;42916;54.346;18.562;2022-12-18T15:15:03;20.60;;;8.20;;
57023;SDS011;42916;54.346;18.562;2022-12-18T15:17:30;19.50;;;7.30;;
57023;SDS011;42916;54.346;18.562;2022-12-18T15:19:58;21.00;;;7.50;;
57023;SDS011;42916;54.346;18.562;2022-12-18T15:22:28;20.70;;;8.10;;
57023;SDS011;42916;54.346;18.562;2022-12-18T15:24:58;25.80;;;9.60;;
57023;SDS011;42916;54.346;18.562;2022-12-18T15:32:35;22.10;;;9.40;;
57023;SDS011;42916;54.346;18.562;2022-12-18T15:35:07;27.90;;;9.60;;
57023;SDS011;42916;54.346;18.562;2022-12-18T15:37:40;26.30;;;9.50;;
57023;SDS011;42916;54.346;18.562;2022-12-18T15:40:08;26.30;;;9.40;;
57023;SDS011;42916;54.346;18.562;2022-12-18T15:42:39;25.90;;;9.90;;
57023;SDS011;42916;54.346;18.562;2022-12-18T15:45:24;25.30;;;9.80;;
57023;SDS011;42916;54.346;18.562;2022-12-18T15:47:51;19.90;;;8.70;;
57023;SDS011;42916;54.346;18.562;2022-12-18T15:50:17;26.20;;;9.40;;
57023;SDS011;42916;54.346;18.562;2022-12-18T15:52:45;26.30;;;10.00;;
57023;SDS011;42916;54.346;18.562;2022-12-18T15:55:14;27.30;;;10.20;;
57023;SDS011;42916;54.346;18.562;2022-12-18T15:58:03;32.60;;;10.90;;
57023;SDS011;42916;54.346;18.562;2022-12-18T16:00:31;25.50;;;9.70;;
57023;SDS011;42916;54.346;18.562;2022-12-18T16:02:59;23.60;;;8.20;;
57023;SDS011;42916;54.346;18.562;2022-12-18T16:05:26;25.30;;;9.40;;
57023;SDS011;42916;54.346;18.562;2022-12-18T16:07:54;23.20;;;9.50;;
57023;SDS011;42916;54.346;18.562;2022-12-18T16:10:25;24.80;;;9.00;;
57023;SDS011;42916;54.346;18.562;2022-12-18T16:12:53;22.60;;;9.60;;
57023;SDS011;42916;54.346;18.562;2022-12-18T16:15:20;27.00;;;9.80;;
57023;SDS011;42916;54.346;18.562;2022-12-18T16:17:47;44.30;;;13.70;;
57023;SDS011;42916;54.346;18.562;2022-12-18T16:20:15;31.60;;;10.90;;
57023;SDS011;42916;54.346;18.562;2022-12-18T16:22:44;36.90;;;12.30;;
57023;SDS011;42916;54.346;18.562;2022-12-18T16:25:22;27.00;;;9.90;;
57023;SDS011;42916;54.346;18.562;2022-12-18T16:27:51;26.30;;;10.50;;
57023;SDS011;42916;54.346;18.562;2022-12-18T16:30:20;30.30;;;11.20;;
57023;SDS011;42916;54.346;18.562;2022-12-18T16:32:48;26.70;;;9.90;;
57023;SDS011;42916;54.346;18.562;2022-12-18T16:35:16;23.10;;;9.40;;
57023;SDS011;42916;54.346;18.562;2022-12-18T16:37:43;26.10;;;10.10;;
57023;SDS011;42916;54.346;18.562;2022-12-18T16:40:12;29.50;;;10.40;;
57023;SDS011;42916;54.346;18.562;2022-12-18T16:42:41;25.80;;;11.10;;
57023;SDS011;42916;54.346;18.562;2022-12-18T16:45:11;24.70;;;8.50;;
57023;SDS011;42916;54.346;18.562;2022-12-18T16:47:42;22.50;;;7.80;;
57023;SDS011;42916;54.346;18.562;2022-12-18T16:50:09;30.00;;;10.70;;
57023;SDS011;42916;54.346;18.562;2022-12-18T16:52:36;34.50;;;12.90;;
57023;SDS011;42916;54.346;18.562;2022-12-18T16:55:03;37.50;;;12.10;;
57023;SDS011;42916;54.346;18.562;2022-12-18T16:57:30;37.80;;;12.60;;
57023;SDS011;42916;54.346;18.562;2022-12-18T16:59:57;34.10;;;10.40;;